sensor_id;sensor_type;location;lat;lon;timestamp;pressure;altitude;pressure_sealevel;temperature
76007;BMP280;64699;0.000;0.000;2023-12-28T00:01:03;100967.50;;;16.56
76007;BMP280;64699;0.000;0.000;2023-12-28T00:03:28;100958.53;;;16.55
76007;BMP280;64699;0.000;0.000;2023-12-28T00:05:54;100946.78;;;16.55
76007;BMP280;64699;0.000;0.000;2023-12-28T00:08:19;100946.78;;;16.55
76007;BMP280;64699;0.000;0.000;2023-12-28T00:10:44;100946.03;;;16.54
76007;BMP280;64699;0.000;0.000;2023-12-28T00:13:10;100935.81;;;16.55
76007;BMP280;64699;0.000;0.000;2023-12-28T00:15:35;100944.81;;;16.55
76007;BMP280;64699;0.000;0.000;2023-12-28T00:18:00;100931.09;;;16.55
76007;BMP280;64699;0.000;0.000;2023-12-28T00:20:25;100921.34;;;16.54
76007;BMP280;64699;0.000;0.000;2023-12-28T00:22:51;100922.88;;;16.55
76007;BMP280;64699;0.000;0.000;2023-12-28T00:25:16;100908.88;;;16.53
76007;BMP280;64699;0.000;0.000;2023-12-28T00:27:41;100918.59;;;16.54
76007;BMP280;64699;0.000;0.000;2023-12-28T00:30:06;100918.59;;;16.54
76007;BMP280;64699;0.000;0.000;2023-12-28T00:32:32;100932.31;;;16.54
76007;BMP280;64699;0.000;0.000;2023-12-28T00:34:57;100918.59;;;16.54
76007;BMP280;64699;0.000;0.000;2023-12-28T00:37:22;100901.41;;;16.54
76007;BMP280;64699;0.000;0.000;2023-12-28T00:39:47;100889.19;;;16.55
76007;BMP280;64699;0.000;0.000;2023-12-28T00:42:14;100879.47;;;16.54
76007;BMP280;64699;0.000;0.000;2023-12-28T00:44:40;100875.47;;;16.55
76007;BMP280;64699;0.000;0.000;2023-12-28T00:47:06;100884.94;;;16.54
76007;BMP280;64699;0.000;0.000;2023-12-28T00:49:31;100880.19;;;16.54
76007;BMP280;64699;0.000;0.000;2023-12-28T00:51:57;100891.16;;;16.54
76007;BMP280;64699;0.000;0.000;2023-12-28T00:54:22;100900.91;;;16.55
76007;BMP280;64699;0.000;0.000;2023-12-28T00:56:47;100924.09;;;16.54
76007;BMP280;64699;0.000;0.000;2023-12-28T00:59:12;100927.59;;;16.55
76007;BMP280;64699;0.000;0.000;2023-12-28T01:01:37;100924.09;;;16.54
76007;BMP280;64699;0.000;0.000;2023-12-28T01:04:02;100918.59;;;16.54
76007;BMP280;64699;0.000;0.000;2023-12-28T01:06:28;100912.38;;;16.54
76007;BMP280;64699;0.000;0.000;2023-12-28T01:08:56;100911.13;;;16.55
76007;BMP280;64699;0.000;0.000;2023-12-28T01:11:22;100906.13;;;16.53
76007;BMP280;64699;0.000;0.000;2023-12-28T01:13:47;100890.44;;;16.54
76007;BMP280;64699;0.000;0.000;2023-12-28T01:16:13;100890.44;;;16.54
76007;BMP280;64699;0.000;0.000;2023-12-28T01:18:38;100882.22;;;16.54
76007;BMP280;64699;0.000;0.000;2023-12-28T01:21:03;100893.91;;;16.54
76007;BMP280;64699;0.000;0.000;2023-12-28T01:23:28;100889.69;;;16.53
76007;BMP280;64699;0.000;0.000;2023-12-28T01:25:55;100878.69;;;16.53
76007;BMP280;64699;0.000;0.000;2023-12-28T01:28:20;100878.69;;;16.53
76007;BMP280;64699;0.000;0.000;2023-12-28T01:30:45;100871.22;;;16.54
76007;BMP280;64699;0.000;0.000;2023-12-28T01:33:10;100862.25;;;16.53
76007;BMP280;64699;0.000;0.000;2023-12-28T01:35:36;100862.25;;;16.53
76007;BMP280;64699;0.000;0.000;2023-12-28T01:38:01;100861.53;;;16.53
76007;BMP280;64699;0.000;0.000;2023-12-28T01:40:26;100861.53;;;16.53
76007;BMP280;64699;0.000;0.000;2023-12-28T01:42:51;100839.59;;;16.53
76007;BMP280;64699;0.000;0.000;2023-12-28T01:45:17;100829.34;;;16.53
76007;BMP280;64699;0.000;0.000;2023-12-28T01:47:42;100840.31;;;16.53
76007;BMP280;64699;0.000;0.000;2023-12-28T01:50:07;100852.03;;;16.54
76007;BMP280;64699;0.000;0.000;2023-12-28T01:52:33;100838.31;;;16.54
76007;BMP280;64699;0.000;0.000;2023-12-28T01:54:58;100833.34;;;16.52
76007;BMP280;64699;0.000;0.000;2023-12-28T01:57:23;100820.41;;;16.53
76007;BMP280;64699;0.000;0.000;2023-12-28T01:59:49;100810.69;;;16.52
76007;BMP280;64699;0.000;0.000;2023-12-28T02:02:14;100805.94;;;16.52
76007;BMP280;64699;0.000;0.000;2023-12-28T02:04:40;100790.22;;;16.53
76007;BMP280;64699;0.000;0.000;2023-12-28T02:07:05;100792.22;;;16.52
76007;BMP280;64699;0.000;0.000;2023-12-28T02:09:30;100799.72;;;16.52
76007;BMP280;64699;0.000;0.000;2023-12-28T02:11:55;100788.72;;;16.52
76007;BMP280;64699;0.000;0.000;2023-12-28T02:14:21;100790.94;;;16.53
76007;BMP280;64699;0.000;0.000;2023-12-28T02:16:50;100762.03;;;16.52
76007;BMP280;64699;0.000;0.000;2023-12-28T02:19:43;100763.28;;;16.51
76007;BMP280;64699;0.000;0.000;2023-12-28T02:22:05;100743.59;;;16.53
76007;BMP280;64699;0.000;0.000;2023-12-28T02:27:18;100731.88;;;16.52
76007;BMP280;64699;0.000;0.000;2023-12-28T02:29:43;100729.88;;;16.53
76007;BMP280;64699;0.000;0.000;2023-12-28T02:32:08;100724.41;;;16.53
76007;BMP280;64699;0.000;0.000;2023-12-28T02:34:36;100741.56;;;16.53
76007;BMP280;64699;0.000;0.000;2023-12-28T02:37:02;100731.88;;;16.52
76007;BMP280;64699;0.000;0.000;2023-12-28T02:39:27;100734.63;;;16.52
76007;BMP280;64699;0.000;0.000;2023-12-28T02:41:54;100730.59;;;16.53
76007;BMP280;64699;0.000;0.000;2023-12-28T02:44:20;100725.09;;;16.53
76007;BMP280;64699;0.000;0.000;2023-12-28T02:46:45;100718.91;;;16.53
76007;BMP280;64699;0.000;0.000;2023-12-28T02:49:11;100715.41;;;16.52
76007;BMP280;64699;0.000;0.000;2023-12-28T02:51:37;100718.91;;;16.53
76007;BMP280;64699;0.000;0.000;2023-12-28T02:54:02;100703.16;;;16.53
76007;BMP280;64699;0.000;0.000;2023-12-28T02:56:27;100698.44;;;16.54
76007;BMP280;64699;0.000;0.000;2023-12-28T02:58:52;100692.97;;;16.54
76007;BMP280;64699;0.000;0.000;2023-12-28T03:01:17;100699.16;;;16.54
76007;BMP280;64699;0.000;0.000;2023-12-28T03:03:43;100697.69;;;16.53
76007;BMP280;64699;0.000;0.000;2023-12-28T03:06:08;100687.47;;;16.54
76007;BMP280;64699;0.000;0.000;2023-12-28T03:08:33;100686.72;;;16.53
76007;BMP280;64699;0.000;0.000;2023-12-28T03:10:58;100680.53;;;16.53
76007;BMP280;64699;0.000;0.000;2023-12-28T03:13:23;100678.47;;;16.53
76007;BMP280;64699;0.000;0.000;2023-12-28T03:15:49;100668.78;;;16.52
76007;BMP280;64699;0.000;0.000;2023-12-28T03:18:14;100671.75;;;16.54
76007;BMP280;64699;0.000;0.000;2023-12-28T03:20:39;100665.53;;;16.54
76007;BMP280;64699;0.000;0.000;2023-12-28T03:23:04;100662.78;;;16.54
76007;BMP280;64699;0.000;0.000;2023-12-28T03:25:30;100657.28;;;16.54
76007;BMP280;64699;0.000;0.000;2023-12-28T03:27:55;100660.78;;;16.54
76007;BMP280;64699;0.000;0.000;2023-12-28T03:30:20;100657.28;;;16.54
76007;BMP280;64699;0.000;0.000;2023-12-28T03:32:45;100660.03;;;16.54
76007;BMP280;64699;0.000;0.000;2023-12-28T03:35:11;100648.31;;;16.53
76007;BMP280;64699;0.000;0.000;2023-12-28T03:37:36;100649.81;;;16.54
76007;BMP280;64699;0.000;0.000;2023-12-28T03:40:01;100647.06;;;16.54
76007;BMP280;64699;0.000;0.000;2023-12-28T03:42:26;100640.09;;;16.53
76007;BMP280;64699;0.000;0.000;2023-12-28T03:44:51;100633.34;;;16.54
76007;BMP280;64699;0.000;0.000;2023-12-28T03:47:17;100631.84;;;16.53
76007;BMP280;64699;0.000;0.000;2023-12-28T03:49:42;100620.88;;;16.53
76007;BMP280;64699;0.000;0.000;2023-12-28T03:52:07;100616.16;;;16.54
76007;BMP280;64699;0.000;0.000;2023-12-28T03:54:32;100615.41;;;16.53
76007;BMP280;64699;0.000;0.000;2023-12-28T03:56:57;100620.88;;;16.53
76007;BMP280;64699;0.000;0.000;2023-12-28T03:59:22;100611.41;;;16.54
76007;BMP280;64699;0.000;0.000;2023-12-28T04:01:48;100615.41;;;16.53
76007;BMP280;64699;0.000;0.000;2023-12-28T04:04:13;100605.19;;;16.54
76007;BMP280;64699;0.000;0.000;2023-12-28T04:06:38;100594.22;;;16.54
76007;BMP280;64699;0.000;0.000;2023-12-28T04:09:03;100587.28;;;16.53
76007;BMP280;64699;0.000;0.000;2023-12-28T04:11:29;100592.75;;;16.53
76007;BMP280;64699;0.000;0.000;2023-12-28T04:13:54;100598.94;;;16.53
76007;BMP280;64699;0.000;0.000;2023-12-28T04:16:20;100587.28;;;16.53
76007;BMP280;64699;0.000;0.000;2023-12-28T04:18:45;100578.28;;;16.52
76007;BMP280;64699;0.000;0.000;2023-12-28T04:21:11;100572.81;;;16.52
76007;BMP280;64699;0.000;0.000;2023-12-28T04:23:36;100568.78;;;16.53
76007;BMP280;64699;0.000;0.000;2023-12-28T04:26:02;100575.53;;;16.52
76007;BMP280;64699;0.000;0.000;2023-12-28T04:28:27;100567.53;;;16.54
76007;BMP280;64699;0.000;0.000;2023-12-28T04:30:53;100557.81;;;16.53
76007;BMP280;64699;0.000;0.000;2023-12-28T04:33:18;100555.06;;;16.53
76007;BMP280;64699;0.000;0.000;2023-12-28T04:35:44;100549.56;;;16.53
76007;BMP280;64699;0.000;0.000;2023-12-28T04:38:09;100568.78;;;16.53
76007;BMP280;64699;0.000;0.000;2023-12-28T04:40:34;100558.56;;;16.54
76007;BMP280;64699;0.000;0.000;2023-12-28T04:43:00;100547.59;;;16.54
76007;BMP280;64699;0.000;0.000;2023-12-28T04:45:25;100542.84;;;16.54
76007;BMP280;64699;0.000;0.000;2023-12-28T04:47:50;100537.34;;;16.54
76007;BMP280;64699;0.000;0.000;2023-12-28T04:50:15;100527.91;;;16.55
76007;BMP280;64699;0.000;0.000;2023-12-28T04:52:41;100519.41;;;16.53
76007;BMP280;64699;0.000;0.000;2023-12-28T04:55:06;100512.66;;;16.54
76007;BMP280;64699;0.000;0.000;2023-12-28T04:57:31;100512.66;;;16.54
76007;BMP280;64699;0.000;0.000;2023-12-28T04:59:57;100504.44;;;16.54
76007;BMP280;64699;0.000;0.000;2023-12-28T05:02:22;100507.19;;;16.54
76007;BMP280;64699;0.000;0.000;2023-12-28T05:04:47;100485.25;;;16.54
76007;BMP280;64699;0.000;0.000;2023-12-28T05:07:12;100491.50;;;16.55
76007;BMP280;64699;0.000;0.000;2023-12-28T05:09:37;100492.25;;;16.55
76007;BMP280;64699;0.000;0.000;2023-12-28T05:12:03;100492.25;;;16.55
76007;BMP280;64699;0.000;0.000;2023-12-28T05:14:28;100495.72;;;16.56
76007;BMP280;64699;0.000;0.000;2023-12-28T05:16:53;100484.03;;;16.55
76007;BMP280;64699;0.000;0.000;2023-12-28T05:19:19;100484.03;;;16.55
76007;BMP280;64699;0.000;0.000;2023-12-28T05:21:44;100486.75;;;16.55
76007;BMP280;64699;0.000;0.000;2023-12-28T05:24:09;100482.00;;;16.56
76007;BMP280;64699;0.000;0.000;2023-12-28T05:26:34;100471.78;;;16.56
76007;BMP280;64699;0.000;0.000;2023-12-28T05:29:00;100471.03;;;16.56
76007;BMP280;64699;0.000;0.000;2023-12-28T05:31:25;100460.81;;;16.56
76007;BMP280;64699;0.000;0.000;2023-12-28T05:33:51;100460.81;;;16.56
76007;BMP280;64699;0.000;0.000;2023-12-28T05:36:16;100452.81;;;16.58
76007;BMP280;64699;0.000;0.000;2023-12-28T05:38:41;100445.84;;;16.57
76007;BMP280;64699;0.000;0.000;2023-12-28T05:41:06;100440.38;;;16.57
76007;BMP280;64699;0.000;0.000;2023-12-28T05:43:34;100434.88;;;16.57
76007;BMP280;64699;0.000;0.000;2023-12-28T05:45:59;100418.44;;;16.57
76007;BMP280;64699;0.000;0.000;2023-12-28T05:48:24;100403.22;;;16.56
76007;BMP280;64699;0.000;0.000;2023-12-28T05:50:49;100406.69;;;16.57
76007;BMP280;64699;0.000;0.000;2023-12-28T05:53:15;100401.22;;;16.57
76007;BMP280;64699;0.000;0.000;2023-12-28T05:55:40;100406.69;;;16.57
76007;BMP280;64699;0.000;0.000;2023-12-28T05:58:06;100401.22;;;16.57
76007;BMP280;64699;0.000;0.000;2023-12-28T06:00:31;100395.72;;;16.57
76007;BMP280;64699;0.000;0.000;2023-12-28T06:02:56;100380.03;;;16.57
76007;BMP280;64699;0.000;0.000;2023-12-28T06:05:21;100380.03;;;16.57
76007;BMP280;64699;0.000;0.000;2023-12-28T06:07:46;100393.75;;;16.57
76007;BMP280;64699;0.000;0.000;2023-12-28T06:10:11;100388.25;;;16.57
76007;BMP280;64699;0.000;0.000;2023-12-28T06:12:37;100388.25;;;16.57
76007;BMP280;64699;0.000;0.000;2023-12-28T06:15:02;100386.97;;;16.58
76007;BMP280;64699;0.000;0.000;2023-12-28T06:17:28;100403.44;;;16.58
76007;BMP280;64699;0.000;0.000;2023-12-28T06:19:53;100404.91;;;16.59
76007;BMP280;64699;0.000;0.000;2023-12-28T06:22:18;100393.94;;;16.59
76007;BMP280;64699;0.000;0.000;2023-12-28T06:24:43;100395.22;;;16.58
76007;BMP280;64699;0.000;0.000;2023-12-28T06:27:09;100393.94;;;16.59
76007;BMP280;64699;0.000;0.000;2023-12-28T06:29:34;100396.69;;;16.59
76007;BMP280;64699;0.000;0.000;2023-12-28T06:31:59;100393.22;;;16.59
76007;BMP280;64699;0.000;0.000;2023-12-28T06:34:24;100392.47;;;16.58
76007;BMP280;64699;0.000;0.000;2023-12-28T06:36:50;100394.47;;;16.58
76007;BMP280;64699;0.000;0.000;2023-12-28T06:39:15;100409.69;;;16.59
76007;BMP280;64699;0.000;0.000;2023-12-28T06:41:40;100403.44;;;16.58
76007;BMP280;64699;0.000;0.000;2023-12-28T06:44:06;100419.41;;;16.60
76007;BMP280;64699;0.000;0.000;2023-12-28T06:46:31;100415.88;;;16.59
76007;BMP280;64699;0.000;0.000;2023-12-28T06:48:56;100433.09;;;16.60
76007;BMP280;64699;0.000;0.000;2023-12-28T06:51:23;100422.13;;;16.60
76007;BMP280;64699;0.000;0.000;2023-12-28T06:53:49;100419.41;;;16.60
76007;BMP280;64699;0.000;0.000;2023-12-28T06:56:14;100419.41;;;16.60
76007;BMP280;64699;0.000;0.000;2023-12-28T06:58:40;100415.88;;;16.59
76007;BMP280;64699;0.000;0.000;2023-12-28T07:01:05;100410.41;;;16.59
76007;BMP280;64699;0.000;0.000;2023-12-28T07:03:31;100400.91;;;16.60
76007;BMP280;64699;0.000;0.000;2023-12-28T07:05:58;100394.72;;;16.60
76007;BMP280;64699;0.000;0.000;2023-12-28T07:08:23;100400.19;;;16.60
76007;BMP280;64699;0.000;0.000;2023-12-28T07:10:48;100382.97;;;16.59
76007;BMP280;64699;0.000;0.000;2023-12-28T07:13:13;100387.75;;;16.59
76007;BMP280;64699;0.000;0.000;2023-12-28T07:15:39;100382.97;;;16.59
76007;BMP280;64699;0.000;0.000;2023-12-28T07:18:04;100376.75;;;16.59
76007;BMP280;64699;0.000;0.000;2023-12-28T07:20:29;100380.25;;;16.59
76007;BMP280;64699;0.000;0.000;2023-12-28T07:22:54;100370.53;;;16.58
76007;BMP280;64699;0.000;0.000;2023-12-28T07:25:19;100374.75;;;16.59
76007;BMP280;64699;0.000;0.000;2023-12-28T07:27:45;100382.97;;;16.59
76007;BMP280;64699;0.000;0.000;2023-12-28T07:30:10;100366.53;;;16.59
76007;BMP280;64699;0.000;0.000;2023-12-28T07:32:35;100372.00;;;16.59
76007;BMP280;64699;0.000;0.000;2023-12-28T07:35:01;100382.97;;;16.59
76007;BMP280;64699;0.000;0.000;2023-12-28T07:37:26;100377.50;;;16.59
76007;BMP280;64699;0.000;0.000;2023-12-28T07:39:51;100377.50;;;16.59
76007;BMP280;64699;0.000;0.000;2023-12-28T07:42:17;100370.75;;;16.60
76007;BMP280;64699;0.000;0.000;2023-12-28T07:44:42;100366.53;;;16.59
76007;BMP280;64699;0.000;0.000;2023-12-28T07:47:08;100350.81;;;16.60
76007;BMP280;64699;0.000;0.000;2023-12-28T07:49:33;100350.81;;;16.60
76007;BMP280;64699;0.000;0.000;2023-12-28T07:51:58;100343.31;;;16.60
76007;BMP280;64699;0.000;0.000;2023-12-28T07:54:23;100355.56;;;16.59
76007;BMP280;64699;0.000;0.000;2023-12-28T07:56:48;100348.09;;;16.60
76007;BMP280;64699;0.000;0.000;2023-12-28T07:59:14;100348.81;;;16.60
76007;BMP280;64699;0.000;0.000;2023-12-28T08:01:39;100334.38;;;16.60
76007;BMP280;64699;0.000;0.000;2023-12-28T08:04:04;100339.09;;;16.59
76007;BMP280;64699;0.000;0.000;2023-12-28T08:06:29;100339.84;;;16.60
76007;BMP280;64699;0.000;0.000;2023-12-28T08:08:57;100340.59;;;16.60
76007;BMP280;64699;0.000;0.000;2023-12-28T08:11:24;100346.06;;;16.60
76007;BMP280;64699;0.000;0.000;2023-12-28T08:13:49;100362.53;;;16.60
76007;BMP280;64699;0.000;0.000;2023-12-28T08:16:14;100368.78;;;16.61
76007;BMP280;64699;0.000;0.000;2023-12-28T08:18:40;100380.47;;;16.61
76007;BMP280;64699;0.000;0.000;2023-12-28T08:21:05;100385.94;;;16.61
76007;BMP280;64699;0.000;0.000;2023-12-28T08:23:30;100376.25;;;16.60
76007;BMP280;64699;0.000;0.000;2023-12-28T08:25:55;100371.00;;;16.62
76007;BMP280;64699;0.000;0.000;2023-12-28T08:28:20;100383.22;;;16.61
76007;BMP280;64699;0.000;0.000;2023-12-28T08:30:46;100381.22;;;16.62
76007;BMP280;64699;0.000;0.000;2023-12-28T08:33:11;100373.75;;;16.62
76007;BMP280;64699;0.000;0.000;2023-12-28T08:35:36;100381.22;;;16.62
76007;BMP280;64699;0.000;0.000;2023-12-28T08:38:01;100364.00;;;16.61
76007;BMP280;64699;0.000;0.000;2023-12-28T08:40:27;100338.09;;;16.62
76007;BMP280;64699;0.000;0.000;2023-12-28T08:42:52;100339.31;;;16.61
76007;BMP280;64699;0.000;0.000;2023-12-28T08:45:17;100340.09;;;16.62
76007;BMP280;64699;0.000;0.000;2023-12-28T08:47:42;100335.34;;;16.62
76007;BMP280;64699;0.000;0.000;2023-12-28T08:50:07;100328.34;;;16.61
76007;BMP280;64699;0.000;0.000;2023-12-28T08:52:33;100336.59;;;16.61
76007;BMP280;64699;0.000;0.000;2023-12-28T08:54:58;100326.38;;;16.62
76007;BMP280;64699;0.000;0.000;2023-12-28T08:57:25;100326.38;;;16.62
76007;BMP280;64699;0.000;0.000;2023-12-28T08:59:50;100327.13;;;16.62
76007;BMP280;64699;0.000;0.000;2023-12-28T09:02:16;100332.63;;;16.62
76007;BMP280;64699;0.000;0.000;2023-12-28T09:04:41;100327.13;;;16.62
76007;BMP280;64699;0.000;0.000;2023-12-28T09:07:06;100330.59;;;16.63
76007;BMP280;64699;0.000;0.000;2023-12-28T09:09:31;100335.34;;;16.62
76007;BMP280;64699;0.000;0.000;2023-12-28T09:11:56;100329.13;;;16.62
76007;BMP280;64699;0.000;0.000;2023-12-28T09:14:22;100329.13;;;16.62
76007;BMP280;64699;0.000;0.000;2023-12-28T09:16:47;100320.88;;;16.62
76007;BMP280;64699;0.000;0.000;2023-12-28T09:19:12;100320.88;;;16.62
76007;BMP280;64699;0.000;0.000;2023-12-28T09:21:37;100327.13;;;16.62
76007;BMP280;64699;0.000;0.000;2023-12-28T09:24:03;100321.66;;;16.62
76007;BMP280;64699;0.000;0.000;2023-12-28T09:26:28;100312.13;;;16.63
76007;BMP280;64699;0.000;0.000;2023-12-28T09:28:53;100312.34;;;16.65
76007;BMP280;64699;0.000;0.000;2023-12-28T09:31:19;100301.38;;;16.65
76007;BMP280;64699;0.000;0.000;2023-12-28T09:33:45;100305.63;;;16.66
76007;BMP280;64699;0.000;0.000;2023-12-28T09:36:10;100303.81;;;16.69
76007;BMP280;64699;0.000;0.000;2023-12-28T09:38:38;100306.78;;;16.71
76007;BMP280;64699;0.000;0.000;2023-12-28T09:41:12;100299.56;;;16.73
76007;BMP280;64699;0.000;0.000;2023-12-28T09:46:25;100290.25;;;16.76
76007;BMP280;64699;0.000;0.000;2023-12-28T09:48:51;100291.22;;;16.79
76007;BMP280;64699;0.000;0.000;2023-12-28T09:51:18;100285.22;;;16.80
76007;BMP280;64699;0.000;0.000;2023-12-28T09:53:44;100280.91;;;16.85
76007;BMP280;64699;0.000;0.000;2023-12-28T09:56:09;100283.34;;;16.88
76007;BMP280;64699;0.000;0.000;2023-12-28T09:58:35;100272.28;;;16.94
76007;BMP280;64699;0.000;0.000;2023-12-28T10:01:00;100278.47;;;17.00
76007;BMP280;64699;0.000;0.000;2023-12-28T10:03:26;100280.88;;;17.03
76007;BMP280;64699;0.000;0.000;2023-12-28T10:05:51;100295.06;;;17.07
76007;BMP280;64699;0.000;0.000;2023-12-28T10:08:16;100309.97;;;17.12
76007;BMP280;64699;0.000;0.000;2023-12-28T10:10:42;100307.16;;;17.17
76007;BMP280;64699;0.000;0.000;2023-12-28T10:13:08;100303.34;;;17.20
76007;BMP280;64699;0.000;0.000;2023-12-28T10:15:34;100296.78;;;17.23
76007;BMP280;64699;0.000;0.000;2023-12-28T10:18:00;100273.06;;;17.26
76007;BMP280;64699;0.000;0.000;2023-12-28T10:20:28;100274.22;;;17.30
76007;BMP280;64699;0.000;0.000;2023-12-28T10:22:53;100280.16;;;17.34
76007;BMP280;64699;0.000;0.000;2023-12-28T10:25:19;100272.16;;;17.36
76007;BMP280;64699;0.000;0.000;2023-12-28T10:27:44;100287.56;;;17.39
76007;BMP280;64699;0.000;0.000;2023-12-28T10:30:09;100283.78;;;17.42
76007;BMP280;64699;0.000;0.000;2023-12-28T10:32:35;100279.97;;;17.45
76007;BMP280;64699;0.000;0.000;2023-12-28T10:35:00;100272.69;;;17.47
76007;BMP280;64699;0.000;0.000;2023-12-28T10:37:26;100272.19;;;17.49
76007;BMP280;64699;0.000;0.000;2023-12-28T10:39:51;100269.13;;;17.52
76007;BMP280;64699;0.000;0.000;2023-12-28T10:42:37;100261.84;;;17.55
76007;BMP280;64699;0.000;0.000;2023-12-28T10:45:03;100265.19;;;17.61
76007;BMP280;64699;0.000;0.000;2023-12-28T10:47:31;100268.19;;;17.63
76007;BMP280;64699;0.000;0.000;2023-12-28T10:49:56;100275.38;;;17.66
76007;BMP280;64699;0.000;0.000;2023-12-28T10:52:25;100264.81;;;17.70
76007;BMP280;64699;0.000;0.000;2023-12-28T10:57:33;100270.94;;;17.76
76007;BMP280;64699;0.000;0.000;2023-12-28T11:00:10;100278.34;;;17.81
76007;BMP280;64699;0.000;0.000;2023-12-28T11:02:38;100277.06;;;17.82
76007;BMP280;64699;0.000;0.000;2023-12-28T11:05:05;100280.25;;;17.86
76007;BMP280;64699;0.000;0.000;2023-12-28T11:07:31;100277.72;;;17.88
76007;BMP280;64699;0.000;0.000;2023-12-28T11:09:58;100279.63;;;17.93
76007;BMP280;64699;0.000;0.000;2023-12-28T11:12:25;100277.81;;;17.95
76007;BMP280;64699;0.000;0.000;2023-12-28T11:14:51;100276.03;;;17.98
76007;BMP280;64699;0.000;0.000;2023-12-28T11:17:17;100274.22;;;18.00
76007;BMP280;64699;0.000;0.000;2023-12-28T11:19:44;100269.69;;;18.03
76007;BMP280;64699;0.000;0.000;2023-12-28T11:22:09;100275.38;;;18.05
76007;BMP280;64699;0.000;0.000;2023-12-28T11:24:34;100273.59;;;18.07
76007;BMP280;64699;0.000;0.000;2023-12-28T11:27:01;100277.31;;;18.10
76007;BMP280;64699;0.000;0.000;2023-12-28T11:29:29;100273.47;;;18.13
76007;BMP280;64699;0.000;0.000;2023-12-28T11:31:57;100267.97;;;18.13
76007;BMP280;64699;0.000;0.000;2023-12-28T11:34:25;100278.66;;;18.16
76007;BMP280;64699;0.000;0.000;2023-12-28T11:36:52;100283.31;;;18.21
76007;BMP280;64699;0.000;0.000;2023-12-28T11:39:20;100282.03;;;18.22
76007;BMP280;64699;0.000;0.000;2023-12-28T11:41:45;100285.00;;;18.24
76007;BMP280;64699;0.000;0.000;2023-12-28T11:44:10;100285.41;;;18.28
76007;BMP280;64699;0.000;0.000;2023-12-28T11:46:36;100297.34;;;18.30
76007;BMP280;64699;0.000;0.000;2023-12-28T11:49:04;100287.81;;;18.31
76007;BMP280;64699;0.000;0.000;2023-12-28T11:51:30;100287.75;;;18.37
76007;BMP280;64699;0.000;0.000;2023-12-28T11:53:55;100282.75;;;18.35
76007;BMP280;64699;0.000;0.000;2023-12-28T11:56:21;100285.00;;;18.37
76007;BMP280;64699;0.000;0.000;2023-12-28T11:58:46;100276.19;;;18.38
76007;BMP280;64699;0.000;0.000;2023-12-28T12:01:13;100276.09;;;18.44
76007;BMP280;64699;0.000;0.000;2023-12-28T12:03:38;100270.38;;;18.42
76007;BMP280;64699;0.000;0.000;2023-12-28T12:06:03;100276.28;;;18.46
76007;BMP280;64699;0.000;0.000;2023-12-28T12:08:29;100275.97;;;18.49
76007;BMP280;64699;0.000;0.000;2023-12-28T12:11:01;100273.75;;;18.48
76007;BMP280;64699;0.000;0.000;2023-12-28T12:13:28;100267.91;;;18.51
76007;BMP280;64699;0.000;0.000;2023-12-28T12:15:54;100260.19;;;18.50
76007;BMP280;64699;0.000;0.000;2023-12-28T12:18:19;100259.13;;;18.53
76007;BMP280;64699;0.000;0.000;2023-12-28T12:20:45;100260.28;;;18.57
76007;BMP280;64699;0.000;0.000;2023-12-28T12:23:10;100255.84;;;18.54
76007;BMP280;64699;0.000;0.000;2023-12-28T12:25:36;100252.44;;;18.61
76007;BMP280;64699;0.000;0.000;2023-12-28T12:28:01;100257.72;;;18.59
76007;BMP280;64699;0.000;0.000;2023-12-28T12:30:26;100252.22;;;18.59
76007;BMP280;64699;0.000;0.000;2023-12-28T12:32:51;100265.97;;;18.59
76007;BMP280;64699;0.000;0.000;2023-12-28T12:35:17;100261.97;;;18.60
76007;BMP280;64699;0.000;0.000;2023-12-28T12:37:42;100264.06;;;18.67
76007;BMP280;64699;0.000;0.000;2023-12-28T12:40:08;100267.34;;;18.66
76007;BMP280;64699;0.000;0.000;2023-12-28T12:42:33;100267.00;;;18.69
76007;BMP280;64699;0.000;0.000;2023-12-28T12:44:58;100263.41;;;18.74
76007;BMP280;64699;0.000;0.000;2023-12-28T12:47:24;100262.66;;;18.74
76007;BMP280;64699;0.000;0.000;2023-12-28T12:49:52;100267.44;;;18.73
76007;BMP280;64699;0.000;0.000;2023-12-28T12:52:19;100254.59;;;18.76
76007;BMP280;64699;0.000;0.000;2023-12-28T12:54:52;100257.69;;;18.72
76007;BMP280;64699;0.000;0.000;2023-12-28T12:57:17;100258.09;;;18.76
76007;BMP280;64699;0.000;0.000;2023-12-28T12:59:42;100264.34;;;18.77
76007;BMP280;64699;0.000;0.000;2023-12-28T13:02:07;100258.72;;;18.82
76007;BMP280;64699;0.000;0.000;2023-12-28T13:04:33;100260.50;;;18.80
76007;BMP280;64699;0.000;0.000;2023-12-28T13:06:58;100270.25;;;18.81
76007;BMP280;64699;0.000;0.000;2023-12-28T13:09:23;100267.50;;;18.81
76007;BMP280;64699;0.000;0.000;2023-12-28T13:11:49;100261.66;;;18.84
76007;BMP280;64699;0.000;0.000;2023-12-28T13:14:15;100260.03;;;18.89
76007;BMP280;64699;0.000;0.000;2023-12-28T13:16:40;100250.63;;;18.84
76007;BMP280;64699;0.000;0.000;2023-12-28T13:19:05;100252.88;;;18.86
76007;BMP280;64699;0.000;0.000;2023-12-28T13:21:30;100251.09;;;18.88
76007;BMP280;64699;0.000;0.000;2023-12-28T13:23:55;100257.63;;;18.85
76007;BMP280;64699;0.000;0.000;2023-12-28T13:26:24;100264.63;;;18.86
76007;BMP280;64699;0.000;0.000;2023-12-28T13:28:50;100262.47;;;18.92
76007;BMP280;64699;0.000;0.000;2023-12-28T13:31:15;100266.69;;;18.93
76007;BMP280;64699;0.000;0.000;2023-12-28T13:33:43;100269.69;;;18.95
76007;BMP280;64699;0.000;0.000;2023-12-28T13:36:08;100277.19;;;18.95
76007;BMP280;64699;0.000;0.000;2023-12-28T13:38:34;100290.00;;;18.92
76007;BMP280;64699;0.000;0.000;2023-12-28T13:40:59;100291.16;;;18.97
76007;BMP280;64699;0.000;0.000;2023-12-28T13:43:24;100291.03;;;19.02
76007;BMP280;64699;0.000;0.000;2023-12-28T13:45:49;100284.59;;;19.00
76007;BMP280;64699;0.000;0.000;2023-12-28T13:48:14;100282.22;;;19.04
76007;BMP280;64699;0.000;0.000;2023-12-28T13:50:40;100296.31;;;19.00
76007;BMP280;64699;0.000;0.000;2023-12-28T13:53:05;100292.50;;;19.03
76007;BMP280;64699;0.000;0.000;2023-12-28T13:55:33;100299.50;;;19.04
76007;BMP280;64699;0.000;0.000;2023-12-28T13:57:58;100287.97;;;19.06
76007;BMP280;64699;0.000;0.000;2023-12-28T14:00:23;100280.22;;;19.04
76007;BMP280;64699;0.000;0.000;2023-12-28T14:02:48;100292.72;;;19.05
76007;BMP280;64699;0.000;0.000;2023-12-28T14:05:14;100294.00;;;19.04
76007;BMP280;64699;0.000;0.000;2023-12-28T14:07:39;100293.22;;;19.04